sensor_id;sensor_type;location;lat;lon;timestamp;P1;durP1;ratioP1;P2;durP2;ratioP2
50631;SDS011;49583;45.590;-122.498;2023-06-26T00:01:07;1.40;;;1.00;;
50631;SDS011;49583;45.590;-122.498;2023-06-26T00:03:23;1.90;;;1.20;;
50631;SDS011;49583;45.590;-122.498;2023-06-26T00:05:36;1.10;;;1.00;;
50631;SDS011;49583;45.590;-122.498;2023-06-26T00:07:52;1.60;;;1.30;;
50631;SDS011;49583;45.590;-122.498;2023-06-26T00:10:11;1.20;;;1.10;;
50631;SDS011;49583;45.590;-122.498;2023-06-26T00:12:24;1.70;;;1.10;;
50631;SDS011;49583;45.590;-122.498;2023-06-26T00:14:37;1.30;;;1.20;;
50631;SDS011;49583;45.590;-122.498;2023-06-26T00:16:50;1.50;;;1.10;;
50631;SDS011;49583;45.590;-122.498;2023-06-26T00:19:03;1.20;;;0.90;;
50631;SDS011;49583;45.590;-122.498;2023-06-26T00:21:16;1.80;;;1.20;;
50631;SDS011;49583;45.590;-122.498;2023-06-26T00:23:39;1.20;;;1.10;;
50631;SDS011;49583;45.590;-122.498;2023-06-26T00:25:52;1.10;;;0.90;;
50631;SDS011;49583;45.590;-122.498;2023-06-26T00:28:06;1.00;;;0.80;;
50631;SDS011;49583;45.590;-122.498;2023-06-26T00:30:22;1.70;;;1.20;;
50631;SDS011;49583;45.590;-122.498;2023-06-26T00:32:36;1.40;;;1.00;;
50631;SDS011;49583;45.590;-122.498;2023-06-26T00:34:52;1.00;;;0.90;;
50631;SDS011;49583;45.590;-122.498;2023-06-26T00:37:06;1.30;;;1.00;;
50631;SDS011;49583;45.590;-122.498;2023-06-26T00:39:20;2.90;;;0.90;;
50631;SDS011;49583;45.590;-122.498;2023-06-26T00:41:33;2.70;;;1.20;;
50631;SDS011;49583;45.590;-122.498;2023-06-26T00:43:47;1.20;;;1.10;;
50631;SDS011;49583;45.590;-122.498;2023-06-26T00:46:10;3.10;;;1.40;;
50631;SDS011;49583;45.590;-122.498;2023-06-26T00:48:25;1.70;;;1.30;;
50631;SDS011;49583;45.590;-122.498;2023-06-26T00:50:38;1.00;;;0.90;;
50631;SDS011;49583;45.590;-122.498;2023-06-26T00:52:51;1.10;;;0.80;;
50631;SDS011;49583;45.590;-122.498;2023-06-26T00:55:08;2.20;;;0.90;;
50631;SDS011;49583;45.590;-122.498;2023-06-26T00:57:22;3.10;;;1.20;;
50631;SDS011;49583;45.590;-122.498;2023-06-26T00:59:35;1.10;;;1.00;;
50631;SDS011;49583;45.590;-122.498;2023-06-26T01:01:51;1.80;;;1.20;;
50631;SDS011;49583;45.590;-122.498;2023-06-26T01:04:04;3.00;;;1.20;;
50631;SDS011;49583;45.590;-122.498;2023-06-26T01:06:28;2.80;;;1.10;;
50631;SDS011;49583;45.590;-122.498;2023-06-26T01:08:53;1.20;;;1.10;;
50631;SDS011;49583;45.590;-122.498;2023-06-26T01:11:06;3.20;;;0.90;;
50631;SDS011;49583;45.590;-122.498;2023-06-26T01:13:24;1.10;;;0.90;;
50631;SDS011;49583;45.590;-122.498;2023-06-26T01:15:38;1.80;;;1.10;;
50631;SDS011;49583;45.590;-122.498;2023-06-26T01:17:52;0.90;;;0.90;;
50631;SDS011;49583;45.590;-122.498;2023-06-26T01:20:14;2.20;;;1.10;;
50631;SDS011;49583;45.590;-122.498;2023-06-26T01:22:42;2.40;;;0.90;;
50631;SDS011;49583;45.590;-122.498;2023-06-26T01:25:04;0.80;;;0.80;;
50631;SDS011;49583;45.590;-122.498;2023-06-26T01:27:29;1.70;;;0.90;;
50631;SDS011;49583;45.590;-122.498;2023-06-26T01:29:46;1.00;;;0.90;;
50631;SDS011;49583;45.590;-122.498;2023-06-26T01:32:01;1.50;;;1.00;;
50631;SDS011;49583;45.590;-122.498;2023-06-26T01:34:14;2.00;;;0.90;;
50631;SDS011;49583;45.590;-122.498;2023-06-26T01:36:30;1.80;;;1.00;;
50631;SDS011;49583;45.590;-122.498;2023-06-26T01:38:45;1.80;;;0.90;;
50631;SDS011;49583;45.590;-122.498;2023-06-26T01:41:06;1.50;;;0.80;;
50631;SDS011;49583;45.590;-122.498;2023-06-26T01:43:21;1.90;;;1.10;;
50631;SDS011;49583;45.590;-122.498;2023-06-26T01:45:39;2.20;;;0.70;;
50631;SDS011;49583;45.590;-122.498;2023-06-26T01:47:59;1.10;;;0.90;;
50631;SDS011;49583;45.590;-122.498;2023-06-26T01:50:28;1.20;;;1.10;;
50631;SDS011;49583;45.590;-122.498;2023-06-26T01:52:45;1.40;;;0.80;;
50631;SDS011;49583;45.590;-122.498;2023-06-26T01:55:10;1.00;;;0.80;;
50631;SDS011;49583;45.590;-122.498;2023-06-26T01:57:34;1.40;;;0.80;;
50631;SDS011;49583;45.590;-122.498;2023-06-26T01:59:53;1.30;;;1.00;;
50631;SDS011;49583;45.590;-122.498;2023-06-26T02:02:09;1.10;;;0.80;;
50631;SDS011;49583;45.590;-122.498;2023-06-26T02:04:26;1.40;;;1.10;;
50631;SDS011;49583;45.590;-122.498;2023-06-26T02:06:42;1.10;;;1.00;;
50631;SDS011;49583;45.590;-122.498;2023-06-26T02:08:55;0.80;;;0.70;;
50631;SDS011;49583;45.590;-122.498;2023-06-26T02:11:09;0.90;;;0.80;;
50631;SDS011;49583;45.590;-122.498;2023-06-26T02:13:31;1.10;;;0.80;;
50631;SDS011;49583;45.590;-122.498;2023-06-26T02:15:44;2.70;;;1.10;;
50631;SDS011;49583;45.590;-122.498;2023-06-26T02:18:00;1.10;;;1.00;;
50631;SDS011;49583;45.590;-122.498;2023-06-26T02:20:13;1.50;;;1.10;;
50631;SDS011;49583;45.590;-122.498;2023-06-26T02:22:26;0.90;;;0.90;;
50631;SDS011;49583;45.590;-122.498;2023-06-26T02:24:39;2.50;;;0.80;;
50631;SDS011;49583;45.590;-122.498;2023-06-26T02:27:12;2.00;;;0.80;;
50631;SDS011;49583;45.590;-122.498;2023-06-26T02:29:35;2.80;;;0.80;;
50631;SDS011;49583;45.590;-122.498;2023-06-26T02:31:48;1.20;;;0.80;;
50631;SDS011;49583;45.590;-122.498;2023-06-26T02:34:01;2.10;;;0.80;;
50631;SDS011;49583;45.590;-122.498;2023-06-26T02:36:14;1.20;;;0.90;;
50631;SDS011;49583;45.590;-122.498;2023-06-26T02:38:30;0.90;;;0.80;;
50631;SDS011;49583;45.590;-122.498;2023-06-26T02:40:43;2.40;;;1.00;;
50631;SDS011;49583;45.590;-122.498;2023-06-26T02:42:57;3.10;;;0.70;;
50631;SDS011;49583;45.590;-122.498;2023-06-26T02:45:10;1.60;;;0.60;;
50631;SDS011;49583;45.590;-122.498;2023-06-26T02:47:26;0.80;;;0.80;;
50631;SDS011;49583;45.590;-122.498;2023-06-26T02:49:40;0.70;;;0.70;;
50631;SDS011;49583;45.590;-122.498;2023-06-26T02:51:53;1.90;;;0.90;;
50631;SDS011;49583;45.590;-122.498;2023-06-26T02:54:07;1.00;;;0.90;;
50631;SDS011;49583;45.590;-122.498;2023-06-26T02:56:21;1.40;;;1.00;;
50631;SDS011;49583;45.590;-122.498;2023-06-26T02:58:37;1.00;;;0.90;;
50631;SDS011;49583;45.590;-122.498;2023-06-26T03:00:49;1.30;;;1.20;;
50631;SDS011;49583;45.590;-122.498;2023-06-26T03:03:04;1.60;;;0.90;;
50631;SDS011;49583;45.590;-122.498;2023-06-26T03:05:17;1.30;;;0.90;;
50631;SDS011;49583;45.590;-122.498;2023-06-26T03:07:32;1.40;;;1.10;;
50631;SDS011;49583;45.590;-122.498;2023-06-26T03:09:49;2.40;;;1.00;;
50631;SDS011;49583;45.590;-122.498;2023-06-26T03:12:12;0.80;;;0.70;;
50631;SDS011;49583;45.590;-122.498;2023-06-26T03:14:29;2.50;;;1.00;;
50631;SDS011;49583;45.590;-122.498;2023-06-26T03:16:42;1.40;;;1.30;;
50631;SDS011;49583;45.590;-122.498;2023-06-26T03:18:55;5.30;;;1.50;;
50631;SDS011;49583;45.590;-122.498;2023-06-26T03:21:12;1.10;;;1.00;;
50631;SDS011;49583;45.590;-122.498;2023-06-26T03:23:26;1.10;;;1.00;;
50631;SDS011;49583;45.590;-122.498;2023-06-26T03:25:38;1.60;;;1.00;;
50631;SDS011;49583;45.590;-122.498;2023-06-26T03:28:08;1.00;;;0.90;;
50631;SDS011;49583;45.590;-122.498;2023-06-26T03:30:21;0.90;;;0.80;;
50631;SDS011;49583;45.590;-122.498;2023-06-26T03:32:35;1.90;;;0.90;;
50631;SDS011;49583;45.590;-122.498;2023-06-26T03:34:52;4.80;;;0.90;;
50631;SDS011;49583;45.590;-122.498;2023-06-26T03:37:05;4.30;;;1.00;;
50631;SDS011;49583;45.590;-122.498;2023-06-26T03:39:21;1.10;;;1.00;;
50631;SDS011;49583;45.590;-122.498;2023-06-26T03:41:35;2.00;;;1.00;;
50631;SDS011;49583;45.590;-122.498;2023-06-26T03:43:49;1.80;;;1.00;;
50631;SDS011;49583;45.590;-122.498;2023-06-26T03:46:08;1.30;;;1.00;;
50631;SDS011;49583;45.590;-122.498;2023-06-26T03:48:21;2.20;;;1.00;;
50631;SDS011;49583;45.590;-122.498;2023-06-26T03:50:37;2.10;;;1.30;;
50631;SDS011;49583;45.590;-122.498;2023-06-26T03:52:55;3.80;;;1.20;;
50631;SDS011;49583;45.590;-122.498;2023-06-26T03:55:08;1.10;;;1.00;;
50631;SDS011;49583;45.590;-122.498;2023-06-26T03:57:28;1.30;;;0.80;;
50631;SDS011;49583;45.590;-122.498;2023-06-26T03:59:40;3.60;;;1.40;;
50631;SDS011;49583;45.590;-122.498;2023-06-26T04:01:54;2.70;;;1.40;;
50631;SDS011;49583;45.590;-122.498;2023-06-26T04:04:07;6.00;;;1.10;;
50631;SDS011;49583;45.590;-122.498;2023-06-26T04:06:20;1.80;;;1.10;;
50631;SDS011;49583;45.590;-122.498;2023-06-26T04:08:33;2.70;;;1.30;;
50631;SDS011;49583;45.590;-122.498;2023-06-26T04:10:46;2.30;;;1.00;;
50631;SDS011;49583;45.590;-122.498;2023-06-26T04:12:59;2.00;;;1.20;;
50631;SDS011;49583;45.590;-122.498;2023-06-26T04:15:12;5.00;;;1.30;;
50631;SDS011;49583;45.590;-122.498;2023-06-26T04:17:28;1.50;;;1.20;;
50631;SDS011;49583;45.590;-122.498;2023-06-26T04:19:41;2.00;;;0.90;;
50631;SDS011;49583;45.590;-122.498;2023-06-26T04:21:57;1.70;;;0.90;;
50631;SDS011;49583;45.590;-122.498;2023-06-26T04:24:13;1.60;;;1.00;;
50631;SDS011;49583;45.590;-122.498;2023-06-26T04:26:29;1.40;;;1.00;;
50631;SDS011;49583;45.590;-122.498;2023-06-26T04:28:42;1.00;;;0.90;;
50631;SDS011;49583;45.590;-122.498;2023-06-26T04:30:56;1.60;;;1.10;;
50631;SDS011;49583;45.590;-122.498;2023-06-26T04:33:09;3.10;;;1.20;;
50631;SDS011;49583;45.590;-122.498;2023-06-26T04:35:23;1.10;;;0.90;;
50631;SDS011;49583;45.590;-122.498;2023-06-26T04:37:36;3.60;;;1.10;;
50631;SDS011;49583;45.590;-122.498;2023-06-26T04:40:01;2.80;;;0.90;;
50631;SDS011;49583;45.590;-122.498;2023-06-26T04:42:19;0.70;;;0.70;;
50631;SDS011;49583;45.590;-122.498;2023-06-26T04:44:32;1.90;;;1.00;;
50631;SDS011;49583;45.590;-122.498;2023-06-26T04:46:45;1.90;;;1.10;;
50631;SDS011;49583;45.590;-122.498;2023-06-26T04:48:59;1.50;;;0.90;;
50631;SDS011;49583;45.590;-122.498;2023-06-26T04:51:12;1.70;;;0.90;;
50631;SDS011;49583;45.590;-122.498;2023-06-26T04:53:31;1.20;;;0.90;;
50631;SDS011;49583;45.590;-122.498;2023-06-26T04:55:45;2.70;;;1.20;;
50631;SDS011;49583;45.590;-122.498;2023-06-26T04:57:59;1.30;;;1.10;;
50631;SDS011;49583;45.590;-122.498;2023-06-26T05:00:13;2.40;;;1.00;;
50631;SDS011;49583;45.590;-122.498;2023-06-26T05:02:28;1.10;;;0.90;;
50631;SDS011;49583;45.590;-122.498;2023-06-26T05:04:41;0.90;;;0.90;;
50631;SDS011;49583;45.590;-122.498;2023-06-26T05:06:54;2.60;;;1.10;;
50631;SDS011;49583;45.590;-122.498;2023-06-26T05:09:11;1.50;;;0.90;;
50631;SDS011;49583;45.590;-122.498;2023-06-26T05:11:24;1.30;;;1.10;;
50631;SDS011;49583;45.590;-122.498;2023-06-26T05:13:40;0.80;;;0.80;;
50631;SDS011;49583;45.590;-122.498;2023-06-26T05:15:53;3.30;;;1.00;;
50631;SDS011;49583;45.590;-122.498;2023-06-26T05:18:07;1.60;;;0.90;;
50631;SDS011;49583;45.590;-122.498;2023-06-26T05:20:19;2.00;;;1.00;;
50631;SDS011;49583;45.590;-122.498;2023-06-26T05:22:32;1.80;;;0.90;;
50631;SDS011;49583;45.590;-122.498;2023-06-26T05:24:47;1.10;;;1.00;;
50631;SDS011;49583;45.590;-122.498;2023-06-26T05:27:03;1.60;;;1.30;;
50631;SDS011;49583;45.590;-122.498;2023-06-26T05:29:21;3.00;;;1.10;;
50631;SDS011;49583;45.590;-122.498;2023-06-26T05:31:36;1.00;;;0.80;;
50631;SDS011;49583;45.590;-122.498;2023-06-26T05:33:51;2.20;;;0.90;;
50631;SDS011;49583;45.590;-122.498;2023-06-26T05:36:08;1.30;;;1.10;;
50631;SDS011;49583;45.590;-122.498;2023-06-26T05:38:23;2.80;;;1.00;;
50631;SDS011;49583;45.590;-122.498;2023-06-26T05:40:38;2.10;;;1.20;;
50631;SDS011;49583;45.590;-122.498;2023-06-26T05:42:56;0.90;;;0.90;;
50631;SDS011;49583;45.590;-122.498;2023-06-26T05:45:20;1.30;;;1.00;;
50631;SDS011;49583;45.590;-122.498;2023-06-26T05:47:36;1.50;;;1.00;;
50631;SDS011;49583;45.590;-122.498;2023-06-26T05:49:53;3.20;;;0.70;;
50631;SDS011;49583;45.590;-122.498;2023-06-26T05:52:08;1.30;;;1.10;;
50631;SDS011;49583;45.590;-122.498;2023-06-26T05:54:24;1.40;;;1.00;;
50631;SDS011;49583;45.590;-122.498;2023-06-26T05:56:49;1.70;;;1.00;;
50631;SDS011;49583;45.590;-122.498;2023-06-26T05:59:27;1.00;;;0.90;;
50631;SDS011;49583;45.590;-122.498;2023-06-26T06:01:44;2.70;;;1.20;;
50631;SDS011;49583;45.590;-122.498;2023-06-26T06:03:57;1.30;;;0.90;;
50631;SDS011;49583;45.590;-122.498;2023-06-26T06:06:12;1.30;;;1.00;;
50631;SDS011;49583;45.590;-122.498;2023-06-26T06:08:35;4.00;;;1.10;;
50631;SDS011;49583;45.590;-122.498;2023-06-26T06:10:48;1.50;;;1.00;;
50631;SDS011;49583;45.590;-122.498;2023-06-26T06:13:04;1.40;;;0.90;;
50631;SDS011;49583;45.590;-122.498;2023-06-26T06:15:17;1.50;;;1.10;;
50631;SDS011;49583;45.590;-122.498;2023-06-26T06:17:30;1.60;;;1.30;;
50631;SDS011;49583;45.590;-122.498;2023-06-26T06:19:43;1.40;;;1.00;;
50631;SDS011;49583;45.590;-122.498;2023-06-26T06:21:56;1.80;;;1.00;;
50631;SDS011;49583;45.590;-122.498;2023-06-26T06:24:10;1.90;;;0.90;;
50631;SDS011;49583;45.590;-122.498;2023-06-26T06:26:24;1.40;;;0.90;;
50631;SDS011;49583;45.590;-122.498;2023-06-26T06:28:45;2.10;;;1.10;;
50631;SDS011;49583;45.590;-122.498;2023-06-26T06:31:02;2.30;;;0.80;;
50631;SDS011;49583;45.590;-122.498;2023-06-26T06:33:15;2.20;;;1.00;;
50631;SDS011;49583;45.590;-122.498;2023-06-26T06:35:33;1.20;;;1.10;;
50631;SDS011;49583;45.590;-122.498;2023-06-26T06:37:49;1.60;;;1.20;;
50631;SDS011;49583;45.590;-122.498;2023-06-26T06:40:03;2.30;;;1.00;;
50631;SDS011;49583;45.590;-122.498;2023-06-26T06:42:17;3.80;;;1.30;;
50631;SDS011;49583;45.590;-122.498;2023-06-26T06:44:33;1.60;;;1.30;;
50631;SDS011;49583;45.590;-122.498;2023-06-26T06:46:50;3.30;;;1.40;;
50631;SDS011;49583;45.590;-122.498;2023-06-26T06:49:06;2.30;;;1.10;;
50631;SDS011;49583;45.590;-122.498;2023-06-26T06:51:22;1.60;;;1.10;;
50631;SDS011;49583;45.590;-122.498;2023-06-26T06:53:35;2.00;;;1.00;;
50631;SDS011;49583;45.590;-122.498;2023-06-26T06:55:50;2.80;;;1.10;;
50631;SDS011;49583;45.590;-122.498;2023-06-26T06:58:04;1.70;;;1.40;;
50631;SDS011;49583;45.590;-122.498;2023-06-26T07:00:17;1.10;;;0.90;;
50631;SDS011;49583;45.590;-122.498;2023-06-26T07:02:31;1.90;;;1.30;;
50631;SDS011;49583;45.590;-122.498;2023-06-26T07:04:45;2.70;;;1.50;;
50631;SDS011;49583;45.590;-122.498;2023-06-26T07:07:00;1.60;;;0.90;;
50631;SDS011;49583;45.590;-122.498;2023-06-26T07:09:13;1.20;;;1.00;;
50631;SDS011;49583;45.590;-122.498;2023-06-26T07:11:26;1.30;;;0.90;;
50631;SDS011;49583;45.590;-122.498;2023-06-26T07:13:39;1.00;;;0.90;;
50631;SDS011;49583;45.590;-122.498;2023-06-26T07:15:55;1.50;;;1.40;;
50631;SDS011;49583;45.590;-122.498;2023-06-26T07:18:08;1.20;;;1.00;;
50631;SDS011;49583;45.590;-122.498;2023-06-26T07:20:41;1.80;;;1.20;;
50631;SDS011;49583;45.590;-122.498;2023-06-26T07:22:54;2.00;;;1.10;;
50631;SDS011;49583;45.590;-122.498;2023-06-26T07:25:10;1.40;;;1.20;;
50631;SDS011;49583;45.590;-122.498;2023-06-26T07:27:23;1.70;;;1.00;;
50631;SDS011;49583;45.590;-122.498;2023-06-26T07:29:35;5.00;;;1.20;;
50631;SDS011;49583;45.590;-122.498;2023-06-26T07:31:48;1.40;;;1.00;;
50631;SDS011;49583;45.590;-122.498;2023-06-26T07:34:01;4.70;;;1.30;;
50631;SDS011;49583;45.590;-122.498;2023-06-26T07:36:34;1.20;;;0.80;;
50631;SDS011;49583;45.590;-122.498;2023-06-26T07:38:50;1.20;;;0.90;;
50631;SDS011;49583;45.590;-122.498;2023-06-26T07:41:13;1.00;;;0.90;;
50631;SDS011;49583;45.590;-122.498;2023-06-26T07:43:26;1.20;;;0.90;;
50631;SDS011;49583;45.590;-122.498;2023-06-26T07:45:39;2.30;;;0.90;;
50631;SDS011;49583;45.590;-122.498;2023-06-26T07:47:52;1.10;;;0.90;;
50631;SDS011;49583;45.590;-122.498;2023-06-26T07:50:05;1.50;;;0.90;;
50631;SDS011;49583;45.590;-122.498;2023-06-26T07:52:19;3.10;;;1.00;;
50631;SDS011;49583;45.590;-122.498;2023-06-26T07:54:32;2.00;;;0.90;;
50631;SDS011;49583;45.590;-122.498;2023-06-26T07:56:55;1.10;;;1.00;;
50631;SDS011;49583;45.590;-122.498;2023-06-26T07:59:19;1.40;;;1.10;;
50631;SDS011;49583;45.590;-122.498;2023-06-26T08:01:43;1.30;;;1.20;;
50631;SDS011;49583;45.590;-122.498;2023-06-26T08:03:59;1.30;;;1.00;;
50631;SDS011;49583;45.590;-122.498;2023-06-26T08:06:19;1.60;;;0.90;;
50631;SDS011;49583;45.590;-122.498;2023-06-26T08:08:35;2.10;;;0.70;;
50631;SDS011;49583;45.590;-122.498;2023-06-26T08:10:48;1.20;;;1.10;;
50631;SDS011;49583;45.590;-122.498;2023-06-26T08:13:01;3.80;;;1.00;;
50631;SDS011;49583;45.590;-122.498;2023-06-26T08:15:14;4.90;;;1.30;;
50631;SDS011;49583;45.590;-122.498;2023-06-26T08:17:27;1.90;;;0.90;;
50631;SDS011;49583;45.590;-122.498;2023-06-26T08:19:40;0.90;;;0.80;;
50631;SDS011;49583;45.590;-122.498;2023-06-26T08:21:53;1.10;;;1.00;;
50631;SDS011;49583;45.590;-122.498;2023-06-26T08:24:06;3.50;;;1.20;;
50631;SDS011;49583;45.590;-122.498;2023-06-26T08:26:19;1.50;;;0.90;;
50631;SDS011;49583;45.590;-122.498;2023-06-26T08:28:32;1.20;;;0.80;;
50631;SDS011;49583;45.590;-122.498;2023-06-26T08:30:45;1.60;;;0.90;;
50631;SDS011;49583;45.590;-122.498;2023-06-26T08:32:59;1.10;;;1.00;;
50631;SDS011;49583;45.590;-122.498;2023-06-26T08:35:16;1.80;;;0.90;;
50631;SDS011;49583;45.590;-122.498;2023-06-26T08:37:33;1.80;;;0.70;;
50631;SDS011;49583;45.590;-122.498;2023-06-26T08:39:46;1.50;;;0.80;;
50631;SDS011;49583;45.590;-122.498;2023-06-26T08:41:59;1.70;;;1.10;;
50631;SDS011;49583;45.590;-122.498;2023-06-26T08:44:12;1.30;;;0.80;;
50631;SDS011;49583;45.590;-122.498;2023-06-26T08:46:26;1.20;;;1.00;;
50631;SDS011;49583;45.590;-122.498;2023-06-26T08:48:42;0.90;;;0.90;;
50631;SDS011;49583;45.590;-122.498;2023-06-26T08:51:09;3.20;;;0.80;;
50631;SDS011;49583;45.590;-122.498;2023-06-26T08:53:23;1.10;;;1.00;;
50631;SDS011;49583;45.590;-122.498;2023-06-26T08:55:46;0.90;;;0.90;;
50631;SDS011;49583;45.590;-122.498;2023-06-26T08:58:05;0.90;;;0.80;;
50631;SDS011;49583;45.590;-122.498;2023-06-26T09:00:20;1.40;;;0.90;;
50631;SDS011;49583;45.590;-122.498;2023-06-26T09:02:37;2.90;;;1.10;;
50631;SDS011;49583;45.590;-122.498;2023-06-26T09:04:55;1.70;;;1.00;;
50631;SDS011;49583;45.590;-122.498;2023-06-26T09:07:08;1.40;;;0.90;;
50631;SDS011;49583;45.590;-122.498;2023-06-26T09:09:32;0.90;;;0.80;;
50631;SDS011;49583;45.590;-122.498;2023-06-26T09:11:48;1.40;;;1.00;;
50631;SDS011;49583;45.590;-122.498;2023-06-26T09:14:05;1.20;;;0.80;;
50631;SDS011;49583;45.590;-122.498;2023-06-26T09:16:23;2.40;;;1.00;;
50631;SDS011;49583;45.590;-122.498;2023-06-26T09:18:39;4.50;;;1.20;;
50631;SDS011;49583;45.590;-122.498;2023-06-26T09:20:59;0.90;;;0.60;;
50631;SDS011;49583;45.590;-122.498;2023-06-26T09:23:16;0.80;;;0.80;;
50631;SDS011;49583;45.590;-122.498;2023-06-26T09:25:37;1.30;;;0.70;;
50631;SDS011;49583;45.590;-122.498;2023-06-26T09:28:02;1.30;;;0.80;;
50631;SDS011;49583;45.590;-122.498;2023-06-26T09:30:15;2.00;;;0.70;;
50631;SDS011;49583;45.590;-122.498;2023-06-26T09:32:29;0.90;;;0.80;;
50631;SDS011;49583;45.590;-122.498;2023-06-26T09:34:47;1.30;;;0.80;;
50631;SDS011;49583;45.590;-122.498;2023-06-26T09:37:03;3.20;;;0.80;;
50631;SDS011;49583;45.590;-122.498;2023-06-26T09:39:17;2.40;;;0.80;;
50631;SDS011;49583;45.590;-122.498;2023-06-26T09:41:33;0.80;;;0.80;;
50631;SDS011;49583;45.590;-122.498;2023-06-26T09:43:50;0.90;;;0.70;;
50631;SDS011;49583;45.590;-122.498;2023-06-26T09:46:03;1.10;;;0.80;;
50631;SDS011;49583;45.590;-122.498;2023-06-26T09:48:25;1.20;;;0.80;;
50631;SDS011;49583;45.590;-122.498;2023-06-26T09:50:41;0.80;;;0.80;;
50631;SDS011;49583;45.590;-122.498;2023-06-26T09:53:14;2.10;;;0.80;;
50631;SDS011;49583;45.590;-122.498;2023-06-26T09:55:27;0.80;;;0.80;;
50631;SDS011;49583;45.590;-122.498;2023-06-26T09:57:53;1.10;;;0.80;;
50631;SDS011;49583;45.590;-122.498;2023-06-26T10:00:11;0.60;;;0.60;;
50631;SDS011;49583;45.590;-122.498;2023-06-26T10:02:25;1.20;;;0.70;;
50631;SDS011;49583;45.590;-122.498;2023-06-26T10:04:42;1.10;;;0.70;;
50631;SDS011;49583;45.590;-122.498;2023-06-26T10:06:58;0.70;;;0.70;;
50631;SDS011;49583;45.590;-122.498;2023-06-26T10:09:23;1.00;;;0.70;;
50631;SDS011;49583;45.590;-122.498;2023-06-26T10:11:40;2.40;;;0.80;;
50631;SDS011;49583;45.590;-122.498;2023-06-26T10:14:06;2.60;;;0.80;;
50631;SDS011;49583;45.590;-122.498;2023-06-26T10:16:27;1.10;;;0.70;;
50631;SDS011;49583;45.590;-122.498;2023-06-26T10:18:44;0.70;;;0.60;;
50631;SDS011;49583;45.590;-122.498;2023-06-26T10:21:00;0.50;;;0.50;;
50631;SDS011;49583;45.590;-122.498;2023-06-26T10:23:15;1.00;;;0.70;;
50631;SDS011;49583;45.590;-122.498;2023-06-26T10:25:32;1.20;;;0.80;;
50631;SDS011;49583;45.590;-122.498;2023-06-26T10:27:53;2.70;;;0.70;;
50631;SDS011;49583;45.590;-122.498;2023-06-26T10:30:09;1.10;;;0.90;;
50631;SDS011;49583;45.590;-122.498;2023-06-26T10:32:30;0.80;;;0.70;;
50631;SDS011;49583;45.590;-122.498;2023-06-26T10:34:47;2.20;;;0.90;;
50631;SDS011;49583;45.590;-122.498;2023-06-26T10:37:07;0.70;;;0.60;;
50631;SDS011;49583;45.590;-122.498;2023-06-26T10:39:24;2.60;;;0.70;;
50631;SDS011;49583;45.590;-122.498;2023-06-26T10:41:46;1.20;;;0.90;;
50631;SDS011;49583;45.590;-122.498;2023-06-26T10:44:32;0.80;;;0.70;;
50631;SDS011;49583;45.590;-122.498;2023-06-26T10:49:53;1.30;;;0.80;;
50631;SDS011;49583;45.590;-122.498;2023-06-26T10:52:38;0.70;;;0.60;;
50631;SDS011;49583;45.590;-122.498;2023-06-26T10:55:11;3.30;;;0.90;;
50631;SDS011;49583;45.590;-122.498;2023-06-26T10:57:25;2.00;;;0.80;;
50631;SDS011;49583;45.590;-122.498;2023-06-26T10:59:47;0.70;;;0.60;;
50631;SDS011;49583;45.590;-122.498;2023-06-26T11:02:22;1.10;;;0.60;;
50631;SDS011;49583;45.590;-122.498;2023-06-26T11:04:59;0.70;;;0.70;;
50631;SDS011;49583;45.590;-122.498;2023-06-26T11:07:20;0.90;;;0.60;;
50631;SDS011;49583;45.590;-122.498;2023-06-26T11:09:37;0.70;;;0.60;;
50631;SDS011;49583;45.590;-122.498;2023-06-26T11:12:09;1.10;;;0.70;;
50631;SDS011;49583;45.590;-122.498;2023-06-26T11:14:23;1.10;;;0.80;;
50631;SDS011;49583;45.590;-122.498;2023-06-26T11:16:36;1.80;;;0.80;;
50631;SDS011;49583;45.590;-122.498;2023-06-26T11:19:12;0.50;;;0.50;;
50631;SDS011;49583;45.590;-122.498;2023-06-26T11:21:36;1.00;;;0.60;;
50631;SDS011;49583;45.590;-122.498;2023-06-26T11:23:56;0.70;;;0.70;;
50631;SDS011;49583;45.590;-122.498;2023-06-26T11:26:24;1.20;;;0.70;;
50631;SDS011;49583;45.590;-122.498;2023-06-26T11:28:41;0.80;;;0.60;;
50631;SDS011;49583;45.590;-122.498;2023-06-26T11:31:04;0.80;;;0.60;;
50631;SDS011;49583;45.590;-122.498;2023-06-26T11:33:17;1.60;;;0.80;;
50631;SDS011;49583;45.590;-122.498;2023-06-26T11:35:39;0.60;;;0.60;;
50631;SDS011;49583;45.590;-122.498;2023-06-26T11:37:57;2.30;;;0.70;;
50631;SDS011;49583;45.590;-122.498;2023-06-26T11:40:19;0.70;;;0.50;;
50631;SDS011;49583;45.590;-122.498;2023-06-26T11:42:40;1.10;;;0.50;;
50631;SDS011;49583;45.590;-122.498;2023-06-26T11:44:57;0.90;;;0.60;;
50631;SDS011;49583;45.590;-122.498;2023-06-26T11:47:14;0.60;;;0.50;;
50631;SDS011;49583;45.590;-122.498;2023-06-26T11:49:29;1.90;;;0.40;;
50631;SDS011;49583;45.590;-122.498;2023-06-26T11:51:45;0.70;;;0.50;;
50631;SDS011;49583;45.590;-122.498;2023-06-26T11:54:08;1.10;;;0.60;;
50631;SDS011;49583;45.590;-122.498;2023-06-26T11:56:32;0.90;;;0.50;;
50631;SDS011;49583;45.590;-122.498;2023-06-26T11:59:00;0.50;;;0.40;;
50631;SDS011;49583;45.590;-122.498;2023-06-26T12:01:20;0.60;;;0.60;;
50631;SDS011;49583;45.590;-122.498;2023-06-26T12:03:47;1.30;;;0.50;;
50631;SDS011;49583;45.590;-122.498;2023-06-26T12:06:00;0.80;;;0.40;;
50631;SDS011;49583;45.590;-122.498;2023-06-26T12:08:14;0.70;;;0.70;;
50631;SDS011;49583;45.590;-122.498;2023-06-26T12:10:27;0.60;;;0.50;;
50631;SDS011;49583;45.590;-122.498;2023-06-26T12:12:54;0.70;;;0.70;;
50631;SDS011;49583;45.590;-122.498;2023-06-26T12:15:15;0.90;;;0.40;;
50631;SDS011;49583;45.590;-122.498;2023-06-26T12:17:32;0.80;;;0.50;;
50631;SDS011;49583;45.590;-122.498;2023-06-26T12:19:50;0.40;;;0.40;;
50631;SDS011;49583;45.590;-122.498;2023-06-26T12:22:05;1.80;;;0.80;;
50631;SDS011;49583;45.590;-122.498;2023-06-26T12:24:29;0.70;;;0.50;;
50631;SDS011;49583;45.590;-122.498;2023-06-26T12:26:52;0.60;;;0.60;;
50631;SDS011;49583;45.590;-122.498;2023-06-26T12:29:16;3.80;;;0.60;;
50631;SDS011;49583;45.590;-122.498;2023-06-26T12:31:32;1.60;;;0.50;;
50631;SDS011;49583;45.590;-122.498;2023-06-26T12:33:49;0.50;;;0.50;;
50631;SDS011;49583;45.590;-122.498;2023-06-26T12:36:02;0.70;;;0.50;;
50631;SDS011;49583;45.590;-122.498;2023-06-26T12:38:35;0.90;;;0.60;;
50631;SDS011;49583;45.590;-122.498;2023-06-26T12:40:48;0.50;;;0.50;;
50631;SDS011;49583;45.590;-122.498;2023-06-26T12:43:01;0.90;;;0.60;;
50631;SDS011;49583;45.590;-122.498;2023-06-26T12:45:25;1.00;;;0.70;;
50631;SDS011;49583;45.590;-122.498;2023-06-26T12:47:50;0.70;;;0.70;;
50631;SDS011;49583;45.590;-122.498;2023-06-26T12:50:04;1.70;;;0.50;;
50631;SDS011;49583;45.590;-122.498;2023-06-26T12:52:21;1.90;;;0.70;;
50631;SDS011;49583;45.590;-122.498;2023-06-26T12:54:37;1.30;;;0.50;;
50631;SDS011;49583;45.590;-122.498;2023-06-26T12:57:11;0.90;;;0.50;;
50631;SDS011;49583;45.590;-122.498;2023-06-26T12:59:35;2.30;;;0.70;;
50631;SDS011;49583;45.590;-122.498;2023-06-26T13:01:48;3.10;;;0.70;;
50631;SDS011;49583;45.590;-122.498;2023-06-26T13:04:21;0.60;;;0.50;;
50631;SDS011;49583;45.590;-122.498;2023-06-26T13:06:46;0.80;;;0.70;;
50631;SDS011;49583;45.590;-122.498;2023-06-26T13:09:19;0.60;;;0.60;;
50631;SDS011;49583;45.590;-122.498;2023-06-26T13:11:43;1.60;;;0.60;;
50631;SDS011;49583;45.590;-122.498;2023-06-26T13:13:59;3.80;;;0.50;;